This is the latest recevied weather packets stored in our database for station/object HA2SKA-1. If no packets are shown the sender has not sent any weather packets the latest 10 day(s).
| Time | Temp. | Humidity | Pressure | Rain* | Wind** | Luminosity | Snow |
|---|---|---|---|---|---|---|---|
| 1777774564 | 13.89° C | 48% | 1021.7 hPa | - | - | - | - |
| 1777773664 | 14.44° C | 45% | 1021.7 hPa | - | - | - | - |
| 1777772764 | 12.22° C | 54% | 1021.8 hPa | - | - | - | - |
| 1777771864 | 13.89° C | 48% | 1021.7 hPa | - | - | - | - |
| 1777770964 | 15.56° C | 42% | 1021.6 hPa | - | - | - | - |
| 1777770064 | 15.56° C | 42% | 1021.7 hPa | - | - | - | - |
| 1777769164 | 15° C | 43% | 1021.7 hPa | - | - | - | - |
| 1777768263 | 15° C | 44% | 1021.8 hPa | - | - | - | - |
| 1777767363 | 15° C | 48% | 1021.7 hPa | - | - | - | - |
| 1777766463 | 14.44° C | 50% | 1021.7 hPa | - | - | - | - |
| 1777765563 | 12.78° C | 57% | 1021.6 hPa | - | - | - | - |
| 1777764663 | 12.22° C | 61% | 1021.7 hPa | - | - | - | - |
| 1777763763 | 12.22° C | 59% | 1021.7 hPa | - | - | - | - |
| 1777762863 | 12.78° C | 58% | 1021.7 hPa | - | - | - | - |
| 1777761963 | 12.22° C | 61% | 1021.6 hPa | - | - | - | - |
| 1777761063 | 12.22° C | 61% | 1021.7 hPa | - | - | - | - |
| 1777760163 | 12.22° C | 60% | 1021.8 hPa | - | - | - | - |
| 1777759262 | 12.22° C | 62% | 1021.8 hPa | - | - | - | - |
| 1777758362 | 12.78° C | 60% | 1021.8 hPa | - | - | - | - |
| 1777757462 | 11.67° C | 66% | 1021.9 hPa | - | - | - | - |
| 1777756562 | 11.67° C | 64% | 1021.8 hPa | - | - | - | - |
| 1777755662 | 12.78° C | 58% | 1021.9 hPa | - | - | - | - |
| 1777754762 | 12.22° C | 61% | 1022 hPa | - | - | - | - |
| 1777753862 | 12.78° C | 58% | 1022 hPa | - | - | - | - |
| 1777752962 | 12.22° C | 59% | 1022.1 hPa | - | - | - | - |
* Rain since midnight (hover to see other rain measurements)
** Current wind speed in m/s (hover to see current wind gust speed)